sensor_id;sensor_type;location;lat;lon;timestamp;P1;durP1;ratioP1;P2;durP2;ratioP2
76761;SDS011;65705;51.032;13.790;2023-02-20T00:00:27;6.35;;;2.75;;
76761;SDS011;65705;51.032;13.790;2023-02-20T00:02:55;6.72;;;2.90;;
76761;SDS011;65705;51.032;13.790;2023-02-20T00:05:20;7.95;;;3.10;;
76761;SDS011;65705;51.032;13.790;2023-02-20T00:07:46;9.02;;;3.33;;
76761;SDS011;65705;51.032;13.790;2023-02-20T00:10:12;8.77;;;3.13;;
76761;SDS011;65705;51.032;13.790;2023-02-20T00:12:39;11.65;;;2.90;;
76761;SDS011;65705;51.032;13.790;2023-02-20T00:15:05;12.50;;;3.25;;
76761;SDS011;65705;51.032;13.790;2023-02-20T00:17:32;8.50;;;3.13;;
76761;SDS011;65705;51.032;13.790;2023-02-20T00:19:58;8.38;;;3.00;;
76761;SDS011;65705;51.032;13.790;2023-02-20T00:22:24;7.28;;;2.67;;
76761;SDS011;65705;51.032;13.790;2023-02-20T00:24:50;9.38;;;2.92;;
76761;SDS011;65705;51.032;13.790;2023-02-20T00:27:16;8.02;;;2.80;;
76761;SDS011;65705;51.032;13.790;2023-02-20T00:29:43;6.70;;;2.83;;
76761;SDS011;65705;51.032;13.790;2023-02-20T00:32:09;8.07;;;2.67;;
76761;SDS011;65705;51.032;13.790;2023-02-20T00:34:35;7.40;;;2.60;;
76761;SDS011;65705;51.032;13.790;2023-02-20T00:37:01;7.28;;;2.92;;
76761;SDS011;65705;51.032;13.790;2023-02-20T00:39:27;9.90;;;3.25;;
76761;SDS011;65705;51.032;13.790;2023-02-20T00:41:52;5.43;;;2.72;;
76761;SDS011;65705;51.032;13.790;2023-02-20T00:44:20;7.18;;;2.67;;
76761;SDS011;65705;51.032;13.790;2023-02-20T00:46:45;8.88;;;2.95;;
76761;SDS011;65705;51.032;13.790;2023-02-20T00:49:11;10.27;;;2.85;;
76761;SDS011;65705;51.032;13.790;2023-02-20T00:51:46;10.10;;;2.90;;
76761;SDS011;65705;51.032;13.790;2023-02-20T00:54:12;7.82;;;2.50;;
76761;SDS011;65705;51.032;13.790;2023-02-20T00:56:38;6.50;;;2.55;;
76761;SDS011;65705;51.032;13.790;2023-02-20T00:59:03;8.70;;;2.33;;
76761;SDS011;65705;51.032;13.790;2023-02-20T01:01:29;5.95;;;2.55;;
76761;SDS011;65705;51.032;13.790;2023-02-20T01:03:55;8.68;;;2.90;;
76761;SDS011;65705;51.032;13.790;2023-02-20T01:06:20;7.55;;;2.92;;
76761;SDS011;65705;51.032;13.790;2023-02-20T01:08:46;5.78;;;2.65;;
76761;SDS011;65705;51.032;13.790;2023-02-20T01:11:12;7.97;;;2.67;;
76761;SDS011;65705;51.032;13.790;2023-02-20T01:13:38;7.97;;;2.97;;
76761;SDS011;65705;51.032;13.790;2023-02-20T01:16:05;10.18;;;3.00;;
76761;SDS011;65705;51.032;13.790;2023-02-20T01:18:31;7.00;;;2.47;;
76761;SDS011;65705;51.032;13.790;2023-02-20T01:20:57;13.10;;;2.88;;
76761;SDS011;65705;51.032;13.790;2023-02-20T01:23:23;6.68;;;2.53;;
76761;SDS011;65705;51.032;13.790;2023-02-20T01:25:49;3.90;;;1.98;;
76761;SDS011;65705;51.032;13.790;2023-02-20T01:28:15;8.38;;;2.65;;
76761;SDS011;65705;51.032;13.790;2023-02-20T01:30:41;6.97;;;2.15;;
76761;SDS011;65705;51.032;13.790;2023-02-20T01:33:08;5.40;;;2.38;;
76761;SDS011;65705;51.032;13.790;2023-02-20T01:35:34;6.57;;;2.42;;
76761;SDS011;65705;51.032;13.790;2023-02-20T01:38:00;6.55;;;2.40;;
76761;SDS011;65705;51.032;13.790;2023-02-20T01:43:00;5.72;;;2.08;;
76761;SDS011;65705;51.032;13.790;2023-02-20T01:45:29;6.57;;;2.58;;
76761;SDS011;65705;51.032;13.790;2023-02-20T01:47:58;6.55;;;2.45;;
76761;SDS011;65705;51.032;13.790;2023-02-20T01:50:26;7.65;;;2.67;;
76761;SDS011;65705;51.032;13.790;2023-02-20T01:52:57;6.78;;;2.63;;
76761;SDS011;65705;51.032;13.790;2023-02-20T01:55:37;9.77;;;2.00;;
76761;SDS011;65705;51.032;13.790;2023-02-20T01:58:14;6.38;;;2.53;;
76761;SDS011;65705;51.032;13.790;2023-02-20T02:00:45;6.47;;;2.50;;
76761;SDS011;65705;51.032;13.790;2023-02-20T02:03:18;5.75;;;2.53;;
76761;SDS011;65705;51.032;13.790;2023-02-20T02:05:50;5.78;;;2.38;;
76761;SDS011;65705;51.032;13.790;2023-02-20T02:08:18;7.03;;;2.55;;
76761;SDS011;65705;51.032;13.790;2023-02-20T02:13:21;8.85;;;2.97;;
76761;SDS011;65705;51.032;13.790;2023-02-20T02:26:35;5.55;;;2.60;;
76761;SDS011;65705;51.032;13.790;2023-02-20T02:41:06;11.93;;;2.70;;
76761;SDS011;65705;51.032;13.790;2023-02-20T02:46:49;4.30;;;2.38;;
76761;SDS011;65705;51.032;13.790;2023-02-20T02:49:25;6.13;;;2.33;;
76761;SDS011;65705;51.032;13.790;2023-02-20T02:51:58;5.38;;;2.30;;
76761;SDS011;65705;51.032;13.790;2023-02-20T02:54:26;5.35;;;2.10;;
76761;SDS011;65705;51.032;13.790;2023-02-20T02:56:53;4.63;;;2.03;;
76761;SDS011;65705;51.032;13.790;2023-02-20T02:59:44;6.60;;;2.63;;
76761;SDS011;65705;51.032;13.790;2023-02-20T03:02:13;6.13;;;2.58;;
76761;SDS011;65705;51.032;13.790;2023-02-20T03:04:42;6.00;;;2.42;;
76761;SDS011;65705;51.032;13.790;2023-02-20T03:07:12;5.72;;;2.30;;
76761;SDS011;65705;51.032;13.790;2023-02-20T03:09:45;7.28;;;2.58;;
76761;SDS011;65705;51.032;13.790;2023-02-20T03:12:16;7.18;;;2.78;;
76761;SDS011;65705;51.032;13.790;2023-02-20T03:17:47;6.28;;;2.38;;
76761;SDS011;65705;51.032;13.790;2023-02-20T03:20:25;4.68;;;2.10;;
76761;SDS011;65705;51.032;13.790;2023-02-20T03:22:55;6.18;;;2.40;;
76761;SDS011;65705;51.032;13.790;2023-02-20T03:25:25;5.22;;;2.47;;
76761;SDS011;65705;51.032;13.790;2023-02-20T03:27:59;5.68;;;2.58;;
76761;SDS011;65705;51.032;13.790;2023-02-20T03:33:30;5.30;;;2.70;;
76761;SDS011;65705;51.032;13.790;2023-02-20T03:36:23;9.23;;;3.58;;
76761;SDS011;65705;51.032;13.790;2023-02-20T03:39:14;7.13;;;3.33;;
76761;SDS011;65705;51.032;13.790;2023-02-20T03:42:05;7.15;;;3.33;;
76761;SDS011;65705;51.032;13.790;2023-02-20T03:44:59;7.35;;;3.20;;
76761;SDS011;65705;51.032;13.790;2023-02-20T03:49:56;7.75;;;2.95;;
76761;SDS011;65705;51.032;13.790;2023-02-20T03:52:43;8.43;;;3.13;;
76761;SDS011;65705;51.032;13.790;2023-02-20T03:55:09;5.60;;;3.20;;
76761;SDS011;65705;51.032;13.790;2023-02-20T03:57:38;6.88;;;3.45;;
76761;SDS011;65705;51.032;13.790;2023-02-20T04:00:10;6.72;;;3.15;;
76761;SDS011;65705;51.032;13.790;2023-02-20T04:02:47;8.55;;;3.17;;
76761;SDS011;65705;51.032;13.790;2023-02-20T04:05:20;6.25;;;2.97;;
76761;SDS011;65705;51.032;13.790;2023-02-20T04:07:52;5.90;;;2.83;;
76761;SDS011;65705;51.032;13.790;2023-02-20T04:10:27;6.28;;;3.05;;
76761;SDS011;65705;51.032;13.790;2023-02-20T04:12:56;5.60;;;2.80;;
76761;SDS011;65705;51.032;13.790;2023-02-20T04:15:24;7.55;;;3.25;;
76761;SDS011;65705;51.032;13.790;2023-02-20T04:17:54;6.00;;;2.90;;
76761;SDS011;65705;51.032;13.790;2023-02-20T04:20:24;5.30;;;2.63;;
76761;SDS011;65705;51.032;13.790;2023-02-20T04:23:13;7.20;;;2.92;;
76761;SDS011;65705;51.032;13.790;2023-02-20T04:25:48;5.75;;;2.90;;
76761;SDS011;65705;51.032;13.790;2023-02-20T04:28:20;6.07;;;2.97;;
76761;SDS011;65705;51.032;13.790;2023-02-20T04:30:53;6.32;;;2.75;;
76761;SDS011;65705;51.032;13.790;2023-02-20T04:33:20;5.93;;;3.00;;
76761;SDS011;65705;51.032;13.790;2023-02-20T04:35:47;5.18;;;2.53;;
76761;SDS011;65705;51.032;13.790;2023-02-20T04:38:13;6.88;;;3.55;;
76761;SDS011;65705;51.032;13.790;2023-02-20T04:40:40;7.05;;;3.15;;
76761;SDS011;65705;51.032;13.790;2023-02-20T04:43:07;4.82;;;2.78;;
76761;SDS011;65705;51.032;13.790;2023-02-20T04:45:33;6.85;;;3.28;;
76761;SDS011;65705;51.032;13.790;2023-02-20T04:47:59;5.60;;;2.88;;
76761;SDS011;65705;51.032;13.790;2023-02-20T04:50:29;6.80;;;3.03;;
76761;SDS011;65705;51.032;13.790;2023-02-20T04:52:56;5.70;;;3.28;;
76761;SDS011;65705;51.032;13.790;2023-02-20T04:55:24;7.75;;;3.22;;
76761;SDS011;65705;51.032;13.790;2023-02-20T04:57:52;7.07;;;3.40;;
76761;SDS011;65705;51.032;13.790;2023-02-20T05:00:21;7.47;;;3.72;;
76761;SDS011;65705;51.032;13.790;2023-02-20T05:02:48;6.75;;;3.25;;
76761;SDS011;65705;51.032;13.790;2023-02-20T05:05:21;9.13;;;3.90;;
76761;SDS011;65705;51.032;13.790;2023-02-20T05:07:52;8.15;;;3.72;;
76761;SDS011;65705;51.032;13.790;2023-02-20T05:10:20;6.80;;;3.70;;
76761;SDS011;65705;51.032;13.790;2023-02-20T05:12:46;7.55;;;3.85;;
76761;SDS011;65705;51.032;13.790;2023-02-20T05:15:11;9.05;;;3.97;;
76761;SDS011;65705;51.032;13.790;2023-02-20T05:17:38;6.57;;;3.30;;
76761;SDS011;65705;51.032;13.790;2023-02-20T05:20:04;7.63;;;3.92;;
76761;SDS011;65705;51.032;13.790;2023-02-20T05:22:31;10.68;;;4.47;;
76761;SDS011;65705;51.032;13.790;2023-02-20T05:24:57;9.88;;;4.85;;
76761;SDS011;65705;51.032;13.790;2023-02-20T05:27:23;9.35;;;4.60;;
76761;SDS011;65705;51.032;13.790;2023-02-20T05:29:50;10.13;;;4.55;;
76761;SDS011;65705;51.032;13.790;2023-02-20T05:32:19;8.02;;;4.25;;
76761;SDS011;65705;51.032;13.790;2023-02-20T05:34:46;8.30;;;4.47;;
76761;SDS011;65705;51.032;13.790;2023-02-20T05:37:13;9.77;;;4.45;;
76761;SDS011;65705;51.032;13.790;2023-02-20T05:39:39;8.50;;;4.25;;
76761;SDS011;65705;51.032;13.790;2023-02-20T05:42:05;8.75;;;4.38;;
76761;SDS011;65705;51.032;13.790;2023-02-20T05:44:32;8.98;;;4.45;;
76761;SDS011;65705;51.032;13.790;2023-02-20T05:46:58;8.43;;;3.90;;
76761;SDS011;65705;51.032;13.790;2023-02-20T05:49:24;8.15;;;4.18;;
76761;SDS011;65705;51.032;13.790;2023-02-20T05:51:50;8.90;;;4.18;;
76761;SDS011;65705;51.032;13.790;2023-02-20T05:54:20;9.77;;;4.13;;
76761;SDS011;65705;51.032;13.790;2023-02-20T05:56:46;9.93;;;4.68;;
76761;SDS011;65705;51.032;13.790;2023-02-20T05:59:13;7.68;;;3.97;;
76761;SDS011;65705;51.032;13.790;2023-02-20T06:01:41;8.85;;;3.97;;
76761;SDS011;65705;51.032;13.790;2023-02-20T06:04:07;8.32;;;4.20;;
76761;SDS011;65705;51.032;13.790;2023-02-20T06:06:34;7.88;;;3.45;;
76761;SDS011;65705;51.032;13.790;2023-02-20T06:09:02;7.85;;;4.00;;
76761;SDS011;65705;51.032;13.790;2023-02-20T06:11:29;10.63;;;4.45;;
76761;SDS011;65705;51.032;13.790;2023-02-20T06:13:54;9.63;;;4.38;;
76761;SDS011;65705;51.032;13.790;2023-02-20T06:16:27;8.18;;;4.15;;
76761;SDS011;65705;51.032;13.790;2023-02-20T06:18:54;9.23;;;3.90;;
76761;SDS011;65705;51.032;13.790;2023-02-20T06:21:20;9.13;;;4.03;;
76761;SDS011;65705;51.032;13.790;2023-02-20T06:23:47;8.77;;;3.80;;
76761;SDS011;65705;51.032;13.790;2023-02-20T06:26:14;8.45;;;3.67;;
76761;SDS011;65705;51.032;13.790;2023-02-20T06:28:41;8.65;;;3.92;;
76761;SDS011;65705;51.032;13.790;2023-02-20T06:31:07;8.40;;;4.32;;
76761;SDS011;65705;51.032;13.790;2023-02-20T06:33:34;14.32;;;6.40;;
76761;SDS011;65705;51.032;13.790;2023-02-20T06:36:00;8.13;;;3.80;;
76761;SDS011;65705;51.032;13.790;2023-02-20T06:38:26;8.50;;;3.45;;
76761;SDS011;65705;51.032;13.790;2023-02-20T06:40:52;9.48;;;3.72;;
76761;SDS011;65705;51.032;13.790;2023-02-20T06:43:18;7.90;;;3.55;;
76761;SDS011;65705;51.032;13.790;2023-02-20T06:45:44;7.82;;;3.25;;
76761;SDS011;65705;51.032;13.790;2023-02-20T06:48:10;7.43;;;3.20;;
76761;SDS011;65705;51.032;13.790;2023-02-20T06:50:35;9.38;;;3.45;;
76761;SDS011;65705;51.032;13.790;2023-02-20T06:53:01;8.48;;;3.72;;
76761;SDS011;65705;51.032;13.790;2023-02-20T06:55:27;6.72;;;3.05;;
76761;SDS011;65705;51.032;13.790;2023-02-20T06:57:53;8.10;;;3.90;;
76761;SDS011;65705;51.032;13.790;2023-02-20T07:00:19;7.85;;;3.58;;
76761;SDS011;65705;51.032;13.790;2023-02-20T07:02:44;7.95;;;3.08;;
76761;SDS011;65705;51.032;13.790;2023-02-20T07:05:10;6.70;;;3.20;;
76761;SDS011;65705;51.032;13.790;2023-02-20T07:07:37;8.60;;;3.17;;
76761;SDS011;65705;51.032;13.790;2023-02-20T07:10:03;7.97;;;3.35;;
76761;SDS011;65705;51.032;13.790;2023-02-20T07:12:30;8.82;;;3.17;;
76761;SDS011;65705;51.032;13.790;2023-02-20T07:14:57;8.23;;;4.00;;
76761;SDS011;65705;51.032;13.790;2023-02-20T07:17:24;9.68;;;3.45;;
76761;SDS011;65705;51.032;13.790;2023-02-20T07:19:50;4.65;;;2.13;;
76761;SDS011;65705;51.032;13.790;2023-02-20T07:22:15;5.38;;;2.67;;
76761;SDS011;65705;51.032;13.790;2023-02-20T07:24:41;5.60;;;2.75;;
76761;SDS011;65705;51.032;13.790;2023-02-20T07:27:07;5.53;;;2.25;;
76761;SDS011;65705;51.032;13.790;2023-02-20T07:29:38;5.68;;;2.60;;
76761;SDS011;65705;51.032;13.790;2023-02-20T07:32:05;7.05;;;2.40;;
76761;SDS011;65705;51.032;13.790;2023-02-20T07:34:33;5.10;;;2.35;;
76761;SDS011;65705;51.032;13.790;2023-02-20T07:37:00;7.00;;;2.60;;
76761;SDS011;65705;51.032;13.790;2023-02-20T07:39:25;5.97;;;2.55;;
76761;SDS011;65705;51.032;13.790;2023-02-20T07:41:51;4.72;;;2.47;;
76761;SDS011;65705;51.032;13.790;2023-02-20T07:44:36;4.88;;;2.35;;
76761;SDS011;65705;51.032;13.790;2023-02-20T07:47:01;5.25;;;2.13;;
76761;SDS011;65705;51.032;13.790;2023-02-20T07:49:27;4.25;;;2.03;;
76761;SDS011;65705;51.032;13.790;2023-02-20T07:51:53;8.35;;;4.38;;
76761;SDS011;65705;51.032;13.790;2023-02-20T07:54:18;4.72;;;2.05;;
76761;SDS011;65705;51.032;13.790;2023-02-20T07:56:44;3.83;;;1.67;;
76761;SDS011;65705;51.032;13.790;2023-02-20T07:59:10;5.20;;;2.05;;
76761;SDS011;65705;51.032;13.790;2023-02-20T08:01:36;4.18;;;1.92;;
76761;SDS011;65705;51.032;13.790;2023-02-20T08:04:02;4.40;;;1.80;;
76761;SDS011;65705;51.032;13.790;2023-02-20T08:06:28;3.70;;;1.63;;
76761;SDS011;65705;51.032;13.790;2023-02-20T08:08:53;6.57;;;2.05;;
76761;SDS011;65705;51.032;13.790;2023-02-20T08:11:20;4.47;;;1.65;;
76761;SDS011;65705;51.032;13.790;2023-02-20T08:13:47;4.55;;;2.15;;
76761;SDS011;65705;51.032;13.790;2023-02-20T08:16:13;4.32;;;1.70;;
76761;SDS011;65705;51.032;13.790;2023-02-20T08:18:39;3.17;;;1.55;;
76761;SDS011;65705;51.032;13.790;2023-02-20T08:21:04;4.38;;;2.08;;
76761;SDS011;65705;51.032;13.790;2023-02-20T08:23:30;5.07;;;2.28;;
76761;SDS011;65705;51.032;13.790;2023-02-20T08:25:56;3.80;;;1.60;;
76761;SDS011;65705;51.032;13.790;2023-02-20T08:28:22;3.80;;;2.00;;
76761;SDS011;65705;51.032;13.790;2023-02-20T08:30:48;6.28;;;2.72;;
76761;SDS011;65705;51.032;13.790;2023-02-20T08:33:13;4.70;;;2.10;;
76761;SDS011;65705;51.032;13.790;2023-02-20T08:35:39;3.85;;;2.00;;
76761;SDS011;65705;51.032;13.790;2023-02-20T08:38:07;4.78;;;2.08;;
76761;SDS011;65705;51.032;13.790;2023-02-20T08:40:47;5.97;;;2.38;;
76761;SDS011;65705;51.032;13.790;2023-02-20T08:43:13;5.25;;;2.15;;
76761;SDS011;65705;51.032;13.790;2023-02-20T08:45:38;6.70;;;2.40;;
76761;SDS011;65705;51.032;13.790;2023-02-20T08:48:04;5.00;;;2.17;;
76761;SDS011;65705;51.032;13.790;2023-02-20T08:50:30;5.35;;;2.38;;
76761;SDS011;65705;51.032;13.790;2023-02-20T08:52:56;7.70;;;2.70;;
76761;SDS011;65705;51.032;13.790;2023-02-20T08:55:23;5.45;;;2.65;;
76761;SDS011;65705;51.032;13.790;2023-02-20T08:57:49;4.80;;;2.33;;
76761;SDS011;65705;51.032;13.790;2023-02-20T09:00:15;6.40;;;2.58;;
76761;SDS011;65705;51.032;13.790;2023-02-20T09:02:43;6.40;;;2.03;;
76761;SDS011;65705;51.032;13.790;2023-02-20T09:05:11;5.55;;;2.20;;
76761;SDS011;65705;51.032;13.790;2023-02-20T09:07:37;6.32;;;2.40;;
76761;SDS011;65705;51.032;13.790;2023-02-20T09:10:03;4.00;;;1.67;;
76761;SDS011;65705;51.032;13.790;2023-02-20T09:12:29;4.30;;;1.70;;
76761;SDS011;65705;51.032;13.790;2023-02-20T09:14:56;4.13;;;1.83;;
76761;SDS011;65705;51.032;13.790;2023-02-20T09:17:25;3.83;;;1.70;;
76761;SDS011;65705;51.032;13.790;2023-02-20T09:19:51;5.65;;;2.08;;
76761;SDS011;65705;51.032;13.790;2023-02-20T09:22:21;3.05;;;1.40;;
76761;SDS011;65705;51.032;13.790;2023-02-20T09:24:50;3.42;;;1.50;;
76761;SDS011;65705;51.032;13.790;2023-02-20T09:27:16;5.63;;;2.10;;
76761;SDS011;65705;51.032;13.790;2023-02-20T09:29:42;5.07;;;2.22;;
76761;SDS011;65705;51.032;13.790;2023-02-20T09:32:09;4.43;;;1.42;;
76761;SDS011;65705;51.032;13.790;2023-02-20T09:34:35;5.13;;;1.40;;
76761;SDS011;65705;51.032;13.790;2023-02-20T09:37:01;5.25;;;1.70;;
76761;SDS011;65705;51.032;13.790;2023-02-20T09:39:27;3.10;;;1.33;;
76761;SDS011;65705;51.032;13.790;2023-02-20T09:41:59;2.88;;;1.15;;
76761;SDS011;65705;51.032;13.790;2023-02-20T09:45:08;2.10;;;1.10;;
76761;SDS011;65705;51.032;13.790;2023-02-20T09:50:11;3.45;;;1.70;;
76761;SDS011;65705;51.032;13.790;2023-02-20T09:52:41;3.30;;;1.10;;
76761;SDS011;65705;51.032;13.790;2023-02-20T09:55:18;4.88;;;1.25;;
76761;SDS011;65705;51.032;13.790;2023-02-20T10:00:23;3.15;;;1.20;;
76761;SDS011;65705;51.032;13.790;2023-02-20T10:05:38;3.55;;;1.15;;
76761;SDS011;65705;51.032;13.790;2023-02-20T10:08:08;3.03;;;1.30;;
76761;SDS011;65705;51.032;13.790;2023-02-20T10:10:35;5.28;;;1.10;;
76761;SDS011;65705;51.032;13.790;2023-02-20T10:13:12;7.43;;;1.50;;
76761;SDS011;65705;51.032;13.790;2023-02-20T10:16:03;3.63;;;1.10;;
76761;SDS011;65705;51.032;13.790;2023-02-20T10:18:51;2.08;;;1.02;;
76761;SDS011;65705;51.032;13.790;2023-02-20T10:30:05;2.35;;;1.20;;
76761;SDS011;65705;51.032;13.790;2023-02-20T10:32:41;6.28;;;1.30;;
76761;SDS011;65705;51.032;13.790;2023-02-20T10:35:12;5.97;;;1.52;;
76761;SDS011;65705;51.032;13.790;2023-02-20T10:37:44;2.85;;;1.20;;
76761;SDS011;65705;51.032;13.790;2023-02-20T10:40:21;2.05;;;0.80;;
76761;SDS011;65705;51.032;13.790;2023-02-20T10:43:01;2.88;;;1.00;;
76761;SDS011;65705;51.032;13.790;2023-02-20T10:45:48;1.75;;;1.00;;
76761;SDS011;65705;51.032;13.790;2023-02-20T10:48:16;2.95;;;1.10;;
76761;SDS011;65705;51.032;13.790;2023-02-20T10:50:53;3.28;;;1.00;;
76761;SDS011;65705;51.032;13.790;2023-02-20T10:53:46;3.25;;;0.80;;
76761;SDS011;65705;51.032;13.790;2023-02-20T10:56:18;3.33;;;0.80;;
76761;SDS011;65705;51.032;13.790;2023-02-20T11:01:22;1.45;;;1.00;;
76761;SDS011;65705;51.032;13.790;2023-02-20T11:03:51;3.55;;;0.90;;
76761;SDS011;65705;51.032;13.790;2023-02-20T11:06:41;3.72;;;1.40;;
76761;SDS011;65705;51.032;13.790;2023-02-20T11:09:10;3.40;;;1.10;;
76761;SDS011;65705;51.032;13.790;2023-02-20T11:11:38;2.35;;;1.00;;
76761;SDS011;65705;51.032;13.790;2023-02-20T11:14:10;3.53;;;1.10;;
76761;SDS011;65705;51.032;13.790;2023-02-20T11:19:30;2.67;;;0.90;;
76761;SDS011;65705;51.032;13.790;2023-02-20T11:22:02;4.97;;;1.00;;
76761;SDS011;65705;51.032;13.790;2023-02-20T11:24:30;2.42;;;1.00;;
76761;SDS011;65705;51.032;13.790;2023-02-20T11:26:57;3.20;;;0.90;;
76761;SDS011;65705;51.032;13.790;2023-02-20T11:29:27;2.38;;;0.80;;
76761;SDS011;65705;51.032;13.790;2023-02-20T11:32:13;1.77;;;0.70;;
76761;SDS011;65705;51.032;13.790;2023-02-20T11:37:47;2.47;;;0.80;;
76761;SDS011;65705;51.032;13.790;2023-02-20T11:40:28;3.60;;;0.85;;
76761;SDS011;65705;51.032;13.790;2023-02-20T11:43:07;4.00;;;0.90;;
76761;SDS011;65705;51.032;13.790;2023-02-20T11:46:07;2.45;;;0.70;;
76761;SDS011;65705;51.032;13.790;2023-02-20T11:51:36;3.50;;;0.90;;
76761;SDS011;65705;51.032;13.790;2023-02-20T11:56:32;2.13;;;0.80;;
76761;SDS011;65705;51.032;13.790;2023-02-20T12:05:23;4.10;;;0.93;;
76761;SDS011;65705;51.032;13.790;2023-02-20T12:07:41;1.40;;;0.55;;
76761;SDS011;65705;51.032;13.790;2023-02-20T12:12:44;1.88;;;0.85;;
76761;SDS011;65705;51.032;13.790;2023-02-20T12:15:13;4.13;;;0.60;;
76761;SDS011;65705;51.032;13.790;2023-02-20T12:20:25;1.58;;;0.63;;
76761;SDS011;65705;51.032;13.790;2023-02-20T12:22:59;2.72;;;0.77;;
76761;SDS011;65705;51.032;13.790;2023-02-20T12:28:42;1.45;;;0.60;;
76761;SDS011;65705;51.032;13.790;2023-02-20T12:46:27;5.13;;;1.13;;
76761;SDS011;65705;51.032;13.790;2023-02-20T12:52:26;1.05;;;0.35;;
76761;SDS011;65705;51.032;13.790;2023-02-20T12:54:58;4.72;;;0.70;;
76761;SDS011;65705;51.032;13.790;2023-02-20T12:57:40;3.22;;;0.50;;
76761;SDS011;65705;51.032;13.790;2023-02-20T13:00:14;1.45;;;0.60;;
76761;SDS011;65705;51.032;13.790;2023-02-20T13:05:32;2.50;;;0.50;;
76761;SDS011;65705;51.032;13.790;2023-02-20T13:08:08;0.98;;;0.50;;
76761;SDS011;65705;51.032;13.790;2023-02-20T13:13:20;4.15;;;0.55;;
76761;SDS011;65705;51.032;13.790;2023-02-20T13:16:33;2.83;;;0.70;;
76761;SDS011;65705;51.032;13.790;2023-02-20T13:18:50;1.02;;;0.52;;
76761;SDS011;65705;51.032;13.790;2023-02-20T13:21:28;1.33;;;0.63;;
76761;SDS011;65705;51.032;13.790;2023-02-20T13:26:49;1.98;;;0.70;;
76761;SDS011;65705;51.032;13.790;2023-02-20T13:29:20;4.57;;;0.65;;
76761;SDS011;65705;51.032;13.790;2023-02-20T13:31:50;2.67;;;0.82;;
76761;SDS011;65705;51.032;13.790;2023-02-20T13:36:58;1.42;;;0.70;;
76761;SDS011;65705;51.032;13.790;2023-02-20T13:41:57;1.35;;;0.68;;
76761;SDS011;65705;51.032;13.790;2023-02-20T13:58:35;1.73;;;0.50;;
76761;SDS011;65705;51.032;13.790;2023-02-20T14:00:39;2.25;;;0.77;;
76761;SDS011;65705;51.032;13.790;2023-02-20T14:06:09;1.80;;;0.70;;
76761;SDS011;65705;51.032;13.790;2023-02-20T14:08:38;4.88;;;0.90;;
76761;SDS011;65705;51.032;13.790;2023-02-20T14:11:07;0.90;;;0.47;;
76761;SDS011;65705;51.032;13.790;2023-02-20T14:13:35;3.00;;;0.77;;
76761;SDS011;65705;51.032;13.790;2023-02-20T14:16:02;3.42;;;0.80;;
76761;SDS011;65705;51.032;13.790;2023-02-20T14:18:29;3.65;;;0.65;;
76761;SDS011;65705;51.032;13.790;2023-02-20T14:23:34;2.38;;;0.65;;
76761;SDS011;65705;51.032;13.790;2023-02-20T14:26:03;1.73;;;0.60;;
76761;SDS011;65705;51.032;13.790;2023-02-20T14:28:31;1.17;;;0.57;;
76761;SDS011;65705;51.032;13.790;2023-02-20T14:31:02;2.42;;;0.63;;
76761;SDS011;65705;51.032;13.790;2023-02-20T14:33:28;1.88;;;0.52;;
76761;SDS011;65705;51.032;13.790;2023-02-20T14:41:21;3.05;;;0.68;;
76761;SDS011;65705;51.032;13.790;2023-02-20T14:43:55;1.48;;;0.52;;
76761;SDS011;65705;51.032;13.790;2023-02-20T14:46:23;3.63;;;0.70;;
76761;SDS011;65705;51.032;13.790;2023-02-20T14:51:48;3.35;;;0.90;;
76761;SDS011;65705;51.032;13.790;2023-02-20T14:54:20;7.20;;;0.90;;
76761;SDS011;65705;51.032;13.790;2023-02-20T14:56:48;2.75;;;0.77;;
76761;SDS011;65705;51.032;13.790;2023-02-20T14:59:25;3.15;;;0.80;;
76761;SDS011;65705;51.032;13.790;2023-02-20T15:01:52;4.75;;;0.95;;
76761;SDS011;65705;51.032;13.790;2023-02-20T15:04:21;4.20;;;0.73;;
76761;SDS011;65705;51.032;13.790;2023-02-20T15:06:48;1.67;;;0.80;;
76761;SDS011;65705;51.032;13.790;2023-02-20T15:09:16;3.17;;;0.50;;
76761;SDS011;65705;51.032;13.790;2023-02-20T15:14:20;2.13;;;0.70;;
76761;SDS011;65705;51.032;13.790;2023-02-20T15:17:06;3.00;;;0.55;;
76761;SDS011;65705;51.032;13.790;2023-02-20T15:19:41;5.47;;;0.80;;
76761;SDS011;65705;51.032;13.790;2023-02-20T15:33:32;1.90;;;0.70;;
76761;SDS011;65705;51.032;13.790;2023-02-20T15:36:00;3.88;;;0.73;;
76761;SDS011;65705;51.032;13.790;2023-02-20T15:38:30;3.47;;;0.77;;
76761;SDS011;65705;51.032;13.790;2023-02-20T15:40:59;2.95;;;0.80;;
76761;SDS011;65705;51.032;13.790;2023-02-20T15:43:26;4.25;;;1.00;;
76761;SDS011;65705;51.032;13.790;2023-02-20T15:45:52;2.55;;;1.13;;
76761;SDS011;65705;51.032;13.790;2023-02-20T15:48:19;5.65;;;1.10;;
76761;SDS011;65705;51.032;13.790;2023-02-20T15:50:45;4.38;;;0.90;;
76761;SDS011;65705;51.032;13.790;2023-02-20T15:53:14;2.17;;;0.80;;
76761;SDS011;65705;51.032;13.790;2023-02-20T15:55:44;1.67;;;0.80;;
76761;SDS011;65705;51.032;13.790;2023-02-20T15:58:25;2.40;;;0.75;;
76761;SDS011;65705;51.032;13.790;2023-02-20T16:00:53;4.68;;;1.05;;
76761;SDS011;65705;51.032;13.790;2023-02-20T16:03:20;4.93;;;0.77;;
76761;SDS011;65705;51.032;13.790;2023-02-20T16:05:46;3.67;;;0.70;;
76761;SDS011;65705;51.032;13.790;2023-02-20T16:08:12;2.65;;;0.82;;
76761;SDS011;65705;51.032;13.790;2023-02-20T16:10:38;3.90;;;1.00;;
76761;SDS011;65705;51.032;13.790;2023-02-20T16:13:03;1.33;;;0.70;;
76761;SDS011;65705;51.032;13.790;2023-02-20T16:15:29;4.68;;;1.00;;
76761;SDS011;65705;51.032;13.790;2023-02-20T16:17:55;4.32;;;0.80;;
76761;SDS011;65705;51.032;13.790;2023-02-20T16:20:23;3.70;;;0.73;;
76761;SDS011;65705;51.032;13.790;2023-02-20T16:22:50;2.67;;;1.00;;
76761;SDS011;65705;51.032;13.790;2023-02-20T16:25:18;4.10;;;0.88;;
76761;SDS011;65705;51.032;13.790;2023-02-20T16:27:45;4.68;;;0.95;;
76761;SDS011;65705;51.032;13.790;2023-02-20T16:30:21;2.78;;;0.88;;
76761;SDS011;65705;51.032;13.790;2023-02-20T16:32:51;2.70;;;0.80;;
76761;SDS011;65705;51.032;13.790;2023-02-20T16:35:18;3.50;;;0.73;;
76761;SDS011;65705;51.032;13.790;2023-02-20T16:37:44;2.13;;;0.85;;
76761;SDS011;65705;51.032;13.790;2023-02-20T16:40:11;4.45;;;0.90;;
76761;SDS011;65705;51.032;13.790;2023-02-20T16:42:38;1.90;;;0.90;;
76761;SDS011;65705;51.032;13.790;2023-02-20T16:45:05;2.92;;;0.85;;
76761;SDS011;65705;51.032;13.790;2023-02-20T16:47:36;4.43;;;0.95;;
76761;SDS011;65705;51.032;13.790;2023-02-20T16:50:02;3.45;;;0.93;;
76761;SDS011;65705;51.032;13.790;2023-02-20T16:52:35;6.35;;;1.23;;
76761;SDS011;65705;51.032;13.790;2023-02-20T16:55:03;2.50;;;0.88;;
76761;SDS011;65705;51.032;13.790;2023-02-20T16:57:42;4.45;;;0.95;;
76761;SDS011;65705;51.032;13.790;2023-02-20T17:00:11;2.38;;;0.80;;
76761;SDS011;65705;51.032;13.790;2023-02-20T17:02:38;7.57;;;1.50;;
76761;SDS011;65705;51.032;13.790;2023-02-20T17:05:04;7.15;;;1.67;;
76761;SDS011;65705;51.032;13.790;2023-02-20T17:07:30;5.00;;;1.00;;
76761;SDS011;65705;51.032;13.790;2023-02-20T17:09:55;5.75;;;1.05;;
76761;SDS011;65705;51.032;13.790;2023-02-20T17:12:22;2.55;;;1.08;;
76761;SDS011;65705;51.032;13.790;2023-02-20T17:14:48;3.35;;;0.85;;
76761;SDS011;65705;51.032;13.790;2023-02-20T17:17:14;2.83;;;1.00;;
76761;SDS011;65705;51.032;13.790;2023-02-20T17:19:41;4.93;;;1.10;;
76761;SDS011;65705;51.032;13.790;2023-02-20T17:22:07;3.97;;;1.20;;
76761;SDS011;65705;51.032;13.790;2023-02-20T17:24:34;3.10;;;0.98;;